Time;durP1;ratioP1;P1;durP2;ratioP2;P2;SDS_P1;SDS_P2;PMS_P1;PMS_P2;Temp;Humidity;BMP_temperature;BMP_pressure;BME280_temperature;BME280_humidity;BME280_pressure;Samples;Min_cycle;Max_cycle;Signal;HPM_P1;HPM_P2
2023/12/12 00:02:06;;;;;;;38.67;11.50;;;;;;;8.57;100.00;100767.25;5110709;27;20045;-75
2023/12/12 00:04:37;;;;;;;22.98;9.45;;;;;;;8.61;100.00;100761.78;5113901;27;20039;-76
2023/12/12 00:07:06;;;;;;;23.55;9.70;;;;;;;8.57;100.00;100751.31;5101970;27;20070;-74
2023/12/12 00:09:34;;;;;;;31.90;11.10;;;;;;;8.54;100.00;100750.66;5108519;27;20032;-75
2023/12/12 00:11:59;;;;;;;34.47;10.52;;;;;;;8.44;100.00;100750.31;5107475;27;20024;-76
2023/12/12 00:14:25;;;;;;;30.75;9.75;;;;;;;8.41;100.00;100763.75;5100962;27;20036;-76
2023/12/12 00:16:51;;;;;;;28.60;9.52;;;;;;;8.39;100.00;100755.03;5094431;27;20024;-75
2023/12/12 00:19:17;;;;;;;31.17;10.85;;;;;;;8.34;100.00;100767.69;5106273;27;20062;-75
2023/12/12 00:21:45;;;;;;;29.02;10.20;;;;;;;8.30;100.00;100774.09;5105589;27;20116;-75
2023/12/12 00:24:10;;;;;;;28.65;11.40;;;;;;;8.30;100.00;100769.63;5104687;27;20123;-76
2023/12/12 00:26:36;;;;;;;34.08;11.70;;;;;;;8.20;100.00;100770.22;5111611;27;20044;-76
2023/12/12 00:29:06;;;;;;;26.05;11.48;;;;;;;8.19;100.00;100772.03;5107705;27;20040;-76
2023/12/12 00:31:40;;;;;;;35.80;11.48;;;;;;;8.21;100.00;100779.91;5101982;27;20046;-76
2023/12/12 00:34:06;;;;;;;34.75;12.73;;;;;;;8.26;100.00;100783.19;5108111;27;20093;-76
2023/12/12 00:36:35;;;;;;;29.13;12.98;;;;;;;8.16;100.00;100771.34;5100186;27;23243;-76
2023/12/12 00:39:06;;;;;;;30.23;12.05;;;;;;;8.12;100.00;100775.09;5098618;27;20135;-76
2023/12/12 00:41:33;;;;;;;27.13;13.95;;;;;;;8.07;100.00;100777.13;5107137;27;20032;-75
2023/12/12 00:43:58;;;;;;;35.60;14.35;;;;;;;8.15;100.00;100782.91;5111121;27;20102;-75
2023/12/12 00:46:24;;;;;;;36.92;13.23;;;;;;;8.21;100.00;100787.88;5083002;27;20088;-75
2023/12/12 00:48:52;;;;;;;31.70;14.07;;;;;;;8.17;100.00;100779.22;5104985;27;20142;-76
2023/12/12 00:51:19;;;;;;;30.75;14.23;;;;;;;8.20;100.00;100784.38;5111670;27;20039;-76
2023/12/12 00:53:44;;;;;;;44.92;15.90;;;;;;;8.02;100.00;100780.91;5100065;27;20039;-75
2023/12/12 00:56:10;;;;;;;38.85;15.95;;;;;;;8.24;100.00;100785.06;5102566;27;20875;-76
2023/12/12 00:58:35;;;;;;;41.92;16.92;;;;;;;8.22;100.00;100781.63;5095654;27;20035;-76
2023/12/12 01:01:05;;;;;;;33.55;16.00;;;;;;;8.29;100.00;100785.69;5106158;27;20024;-76
2023/12/12 01:03:33;;;;;;;49.20;17.95;;;;;;;8.29;100.00;100785.69;5113041;27;20078;-76
2023/12/12 01:05:59;;;;;;;40.47;17.05;;;;;;;8.15;100.00;100780.25;5113037;27;20123;-75
2023/12/12 01:08:25;;;;;;;42.13;19.02;;;;;;;8.18;100.00;100782.72;5107771;27;20465;-75
2023/12/12 01:10:52;;;;;;;40.85;17.73;;;;;;;8.08;100.00;100790.31;5108607;27;20051;-75
2023/12/12 01:13:18;;;;;;;36.00;17.13;;;;;;;8.19;100.00;100782.66;5092110;27;20032;-76
2023/12/12 01:15:44;;;;;;;47.08;19.35;;;;;;;8.05;100.00;100778.09;5107032;27;20088;-74
2023/12/12 01:18:11;;;;;;;45.88;19.02;;;;;;;8.02;100.00;100770.28;5094948;27;20876;-76
2023/12/12 01:20:37;;;;;;;41.90;18.17;;;;;;;7.98;100.00;100768.75;5090506;27;20093;-75
2023/12/12 01:23:06;;;;;;;41.75;18.42;;;;;;;8.02;100.00;100770.28;5096729;27;20063;-75
2023/12/12 01:25:41;;;;;;;45.08;19.20;;;;;;;8.00;100.00;100766.84;5095672;27;20044;-76
2023/12/12 01:28:06;;;;;;;40.55;19.15;;;;;;;7.85;100.00;100770.34;5106793;27;20092;-75
2023/12/12 01:30:40;;;;;;;51.45;21.13;;;;;;;7.75;100.00;100761.16;5113357;27;20467;-75
2023/12/12 01:33:05;;;;;;;45.15;20.45;;;;;;;7.82;100.00;100767.84;5105046;27;20078;-76
2023/12/12 01:35:31;;;;;;;44.53;20.40;;;;;;;7.76;100.00;100768.16;5114172;27;20028;-75
2023/12/12 01:38:00;;;;;;;53.13;20.75;;;;;;;7.73;100.00;100768.31;5106912;27;20080;-74
2023/12/12 01:40:25;;;;;;;50.15;21.50;;;;;;;7.69;100.00;100764.13;5109520;27;20036;-76
2023/12/12 01:43:08;;;;;;;47.67;20.23;;;;;;;7.66;100.00;100766.94;5107666;27;20039;-75
2023/12/12 01:45:33;;;;;;;54.28;21.08;;;;;;;7.63;100.00;100762.66;5109154;27;20027;-75
2023/12/12 01:48:09;;;;;;;47.75;21.35;;;;;;;7.50;100.00;100770.38;5103167;27;20032;-75
2023/12/12 01:50:38;;;;;;;41.92;19.52;;;;;;;7.38;100.00;100762.19;5112047;27;20047;-76
2023/12/12 01:53:07;;;;;;;51.65;22.67;;;;;;;7.29;100.00;100760.03;5087007;27;20035;-76
2023/12/12 01:55:35;;;;;;;49.10;22.13;;;;;;;7.22;100.00;100759.47;5104854;27;20100;-75
2023/12/12 01:58:03;;;;;;;52.65;22.95;;;;;;;7.24;100.00;100760.25;5106931;27;20031;-75
2023/12/12 02:00:30;;;;;;;51.53;25.08;;;;;;;7.08;100.00;100756.66;5107133;27;20174;-76
2023/12/12 02:02:55;;;;;;;48.42;23.10;;;;;;;7.04;100.00;100748.00;5105894;27;20199;-75
2023/12/12 02:05:22;;;;;;;53.05;24.08;;;;;;;6.98;100.00;100750.97;5106992;27;20279;-75
2023/12/12 02:07:50;;;;;;;53.53;23.58;;;;;;;7.02;100.00;100747.22;5107309;27;20036;-75
2023/12/12 02:10:15;;;;;;;50.20;22.52;;;;;;;6.95;100.00;100743.16;5101950;27;20032;-75
2023/12/12 02:12:41;;;;;;;54.97;24.55;;;;;;;6.89;100.00;100751.44;5103174;27;20071;-75
2023/12/12 02:15:07;;;;;;;54.15;24.80;;;;;;;6.79;100.00;100758.97;5092016;27;20887;-75
2023/12/12 02:17:33;;;;;;;53.13;24.35;;;;;;;6.73;100.00;100754.84;5108405;27;20028;-75
2023/12/12 02:19:58;;;;;;;52.00;22.58;;;;;;;6.66;100.00;100758.69;5103517;27;20047;-75
2023/12/12 02:22:24;;;;;;;44.00;24.13;;;;;;;6.56;100.00;100759.22;5103164;27;20044;-75
2023/12/12 02:24:49;;;;;;;50.40;25.30;;;;;;;6.47;100.00;100758.72;5108381;27;20031;-75
2023/12/12 02:27:15;;;;;;;48.40;24.25;;;;;;;6.38;100.00;100760.97;5115965;27;20035;-76
2023/12/12 02:29:41;;;;;;;41.97;23.38;;;;;;;6.43;100.00;100758.97;5107090;27;20035;-75
2023/12/12 02:32:06;;;;;;;45.90;23.13;;;;;;;6.36;100.00;100754.88;5101221;27;20764;-75
2023/12/12 02:34:38;;;;;;;51.75;24.05;;;;;;;6.32;100.00;100758.59;5104355;27;20148;-76
2023/12/12 02:37:04;;;;;;;57.03;25.30;;;;;;;6.28;100.00;100759.69;5096926;27;20131;-76
2023/12/12 02:39:30;;;;;;;51.95;24.48;;;;;;;6.23;100.00;100763.41;5097693;27;20055;-75
2023/12/12 02:41:56;;;;;;;55.67;23.80;;;;;;;6.14;100.00;100763.81;5114919;27;20184;-76
2023/12/12 02:44:22;;;;;;;57.60;25.42;;;;;;;6.09;100.00;100757.03;5112979;27;20126;-75
2023/12/12 02:46:48;;;;;;;51.42;24.65;;;;;;;6.03;100.00;100765.25;5112369;27;20539;-75
2023/12/12 02:49:14;;;;;;;50.00;25.52;;;;;;;6.05;100.00;100760.75;5083588;27;20103;-74
2023/12/12 02:51:40;;;;;;;60.65;25.40;;;;;;;5.96;100.00;100768.16;5082113;27;20042;-76
2023/12/12 02:54:05;;;;;;;50.35;24.88;;;;;;;5.95;100.00;100766.44;5088792;27;20043;-76
2023/12/12 02:56:32;;;;;;;54.67;25.40;;;;;;;5.91;100.00;100762.22;5080628;28;20044;-75
2023/12/12 02:58:58;;;;;;;52.88;24.15;;;;;;;5.81;100.00;100763.53;5085893;27;20287;-75
2023/12/12 03:01:24;;;;;;;53.60;26.00;;;;;;;5.78;100.00;100762.84;5073933;28;20072;-75
2023/12/12 03:03:50;;;;;;;65.63;28.63;;;;;;;5.70;100.00;100756.06;5068220;28;20062;-75
2023/12/12 03:06:16;;;;;;;62.33;27.27;;;;;;;5.72;100.00;100756.00;5090032;28;20063;-75
2023/12/12 03:08:41;;;;;;;53.45;29.02;;;;;;;5.70;100.00;100756.06;5088777;27;20137;-76
2023/12/12 03:11:07;;;;;;;53.33;27.52;;;;;;;5.74;100.00;100755.97;5076489;28;20157;-75
2023/12/12 03:13:33;;;;;;;56.15;29.15;;;;;;;5.63;100.00;100745.84;5088356;28;20140;-75
2023/12/12 03:15:58;;;;;;;61.83;29.63;;;;;;;5.73;100.00;100747.16;5086546;27;20041;-75
2023/12/12 03:18:24;;;;;;;70.00;30.02;;;;;;;5.71;100.00;100741.06;5086201;27;20028;-75
2023/12/12 03:20:50;;;;;;;56.65;28.40;;;;;;;5.70;100.00;100750.78;5074519;28;20041;-75
2023/12/12 03:23:15;;;;;;;57.00;28.77;;;;;;;5.59;100.00;100747.78;5076840;27;20783;-75
2023/12/12 03:25:41;;;;;;;52.85;28.23;;;;;;;5.56;100.00;100747.03;5070270;28;20400;-75
2023/12/12 03:28:06;;;;;;;58.40;26.92;;;;;;;5.46;100.00;100747.44;5076797;28;20118;-76
2023/12/12 03:30:40;;;;;;;54.08;25.23;;;;;;;5.52;100.00;100746.31;5085219;27;20587;-75
2023/12/12 03:33:06;;;;;;;56.42;25.77;;;;;;;5.51;100.00;100739.31;5072018;28;20037;-76
2023/12/12 03:35:32;;;;;;;49.10;25.65;;;;;;;5.53;100.00;100739.25;5093511;27;20028;-75
2023/12/12 03:37:58;;;;;;;65.30;28.60;;;;;;;5.39;100.00;100740.72;5081185;27;21120;-75
2023/12/12 03:40:28;;;;;;;65.05;27.88;;;;;;;5.33;100.00;100743.63;5088572;28;20033;-75
2023/12/12 03:42:59;;;;;;;48.70;22.63;;;;;;;5.40;100.00;100739.78;5085008;28;20032;-75
2023/12/12 03:45:24;;;;;;;62.65;25.13;;;;;;;5.47;100.00;100740.34;5086660;27;20104;-75
2023/12/12 03:47:50;;;;;;;52.67;23.42;;;;;;;5.46;100.00;100733.34;5087988;28;20797;-75
2023/12/12 03:50:16;;;;;;;60.25;26.67;;;;;;;5.44;100.00;100729.94;5082217;28;20056;-73
2023/12/12 03:52:42;;;;;;;44.10;23.65;;;;;;;5.36;100.00;100730.25;5092031;28;20036;-75
2023/12/12 03:55:08;;;;;;;49.95;24.10;;;;;;;5.37;100.00;100729.34;5095009;28;20539;-76
2023/12/12 03:57:33;;;;;;;53.35;23.80;;;;;;;5.35;100.00;100723.25;5084101;28;21003;-74
2023/12/12 03:59:59;;;;;;;52.70;22.75;;;;;;;5.34;100.00;100729.47;5100925;28;20032;-76
2023/12/12 04:02:24;;;;;;;53.85;24.08;;;;;;;5.33;100.00;100719.84;5076446;28;20047;-76
2023/12/12 04:04:50;;;;;;;40.80;20.73;;;;;;;5.33;100.00;100719.84;5087958;28;20028;-76
2023/12/12 04:07:17;;;;;;;45.92;21.42;;;;;;;5.38;100.00;100717.00;5098297;28;20474;-75
2023/12/12 04:09:42;;;;;;;43.40;22.67;;;;;;;5.38;100.00;100723.13;5074600;28;21323;-76
2023/12/12 04:12:08;;;;;;;46.25;19.85;;;;;;;5.35;100.00;100720.63;5091796;28;20082;-76
2023/12/12 04:14:33;;;;;;;41.80;18.95;;;;;;;5.33;100.00;100714.53;5058792;28;20549;-75
2023/12/12 04:16:59;;;;;;;42.88;18.33;;;;;;;5.26;100.00;100712.22;5089967;28;20028;-75
2023/12/12 04:19:24;;;;;;;49.70;19.20;;;;;;;5.16;100.00;100704.69;5093014;28;20538;-75
2023/12/12 04:21:51;;;;;;;52.28;21.55;;;;;;;5.12;100.00;100708.41;5084484;28;20090;-75
2023/12/12 04:24:16;;;;;;;54.85;18.33;;;;;;;5.13;100.00;100712.75;5087112;28;20098;-76
2023/12/12 04:26:43;;;;;;;43.28;18.67;;;;;;;5.12;100.00;100710.16;5079050;28;20141;-75
2023/12/12 04:29:08;;;;;;;43.05;18.05;;;;;;;5.03;100.00;100713.22;5091095;28;20068;-75
2023/12/12 04:31:35;;;;;;;50.85;19.88;;;;;;;5.11;100.00;100713.75;5089978;28;20033;-75
2023/12/12 04:34:09;;;;;;;61.85;19.27;;;;;;;5.05;100.00;100704.28;5054358;28;20047;-75
2023/12/12 04:36:35;;;;;;;43.60;17.60;;;;;;;5.12;100.00;100710.16;5083797;28;20151;-76
2023/12/12 04:39:03;;;;;;;50.97;18.10;;;;;;;5.01;100.00;100713.28;5082309;28;20492;-74
2023/12/12 04:41:31;;;;;;;49.05;19.42;;;;;;;5.19;100.00;100711.63;5083978;28;20036;-75
2023/12/12 04:44:00;;;;;;;39.70;16.48;;;;;;;5.27;100.00;100706.00;5080213;28;20076;-76
2023/12/12 04:46:27;;;;;;;44.20;18.05;;;;;;;5.37;100.00;100709.97;5081266;28;20045;-75
2023/12/12 04:48:55;;;;;;;42.42;16.95;;;;;;;5.42;100.00;100714.16;5073399;28;20036;-76
2023/12/12 04:51:21;;;;;;;48.47;17.20;;;;;;;5.63;100.00;100708.81;5069918;28;20464;-76
2023/12/12 04:53:49;;;;;;;41.47;17.60;;;;;;;5.71;100.00;100706.66;5088864;28;20035;-76
2023/12/12 04:56:15;;;;;;;42.35;15.77;;;;;;;5.75;100.00;100707.41;5084281;27;20063;-75
2023/12/12 04:58:41;;;;;;;40.85;16.17;;;;;;;5.77;100.00;100702.88;5086461;28;20725;-75
2023/12/12 05:01:06;;;;;;;51.33;20.42;;;;;;;5.69;100.00;100700.59;5063570;28;20036;-75
2023/12/12 05:03:45;;;;;;;51.47;18.33;;;;;;;5.61;100.00;100686.84;5089603;27;20979;-76
2023/12/12 05:06:14;;;;;;;56.63;17.30;;;;;;;5.62;100.00;100680.63;5066894;28;20028;-76
2023/12/12 05:08:41;;;;;;;61.42;19.85;;;;;;;5.62;100.00;100678.88;5079681;28;20041;-75
2023/12/12 05:11:08;;;;;;;44.55;14.38;;;;;;;5.61;100.00;100673.63;5057743;28;20028;-76
2023/12/12 05:13:33;;;;;;;46.33;16.35;;;;;;;5.58;100.00;100666.72;5078861;28;20033;-76
2023/12/12 05:15:59;;;;;;;48.03;17.02;;;;;;;5.56;100.00;100673.84;5054475;28;20028;-76
2023/12/12 05:18:36;;;;;;;45.50;18.00;;;;;;;5.52;100.00;100668.75;5075149;27;20032;-76
2023/12/12 05:21:04;;;;;;;52.03;18.20;;;;;;;5.48;100.00;100668.06;5063928;28;20028;-76
2023/12/12 05:23:32;;;;;;;37.47;14.90;;;;;;;5.42;100.00;100663.03;5085035;27;20048;-76
2023/12/12 05:25:58;;;;;;;32.38;13.65;;;;;;;5.28;100.00;100657.53;5089463;28;20098;-76
2023/12/12 05:28:23;;;;;;;45.63;16.63;;;;;;;5.24;100.00;100664.72;5070934;28;20511;-76
2023/12/12 05:30:49;;;;;;;56.38;17.35;;;;;;;5.32;100.00;100657.31;5082271;28;20035;-76
2023/12/12 05:33:15;;;;;;;50.75;17.58;;;;;;;5.33;100.00;100663.47;5082935;28;20422;-76
2023/12/12 05:35:41;;;;;;;43.25;17.42;;;;;;;5.27;100.00;100658.41;5077815;28;20037;-75
2023/12/12 05:38:06;;;;;;;69.78;24.45;;;;;;;5.26;100.00;100654.91;5084606;27;20032;-76
2023/12/12 05:40:38;;;;;;;50.38;19.20;;;;;;;5.27;100.00;100650.50;5084957;28;20040;-76
2023/12/12 05:43:04;;;;;;;54.95;19.27;;;;;;;5.19;100.00;100650.84;5054015;28;20134;-76
2023/12/12 05:45:30;;;;;;;52.58;18.00;;;;;;;5.15;100.00;100641.31;5083996;28;20029;-75
2023/12/12 05:47:56;;;;;;;244.52;31.27;;;;;;;5.20;100.00;100644.63;5049670;28;20821;-76
2023/12/12 05:50:22;;;;;;;662.50;56.97;;;;;;;5.05;100.00;100643.50;5091099;27;20044;-76
2023/12/12 05:52:50;;;;;;;103.55;18.42;;;;;;;5.01;100.00;100636.63;5110555;27;20804;-76
2023/12/12 05:55:16;;;;;;;30.85;13.45;;;;;;;5.09;100.00;100638.97;5089556;27;20188;-75
2023/12/12 05:57:42;;;;;;;40.78;15.90;;;;;;;5.10;100.00;100641.53;5111300;27;20109;-76
2023/12/12 06:00:15;;;;;;;76.88;19.25;;;;;;;5.07;100.00;100646.06;5095417;27;20051;-76
2023/12/12 06:02:41;;;;;;;26.52;11.60;;;;;;;4.97;100.00;100643.00;5090195;27;20066;-75
2023/12/12 06:05:07;;;;;;;66.50;12.60;;;;;;;4.90;100.00;100646.81;5098158;27;20169;-78
2023/12/12 06:07:34;;;;;;;42.53;15.95;;;;;;;4.90;100.00;100652.09;5095916;27;20091;-80
2023/12/12 06:10:04;;;;;;;52.92;18.95;;;;;;;4.90;100.00;100654.75;5109102;27;20053;-76
2023/12/12 06:12:34;;;;;;;;;;;;;;;4.91;100.00;100653.81;5089434;27;20039;-77
2023/12/12 06:15:07;;;;;;;46.65;16.00;;;;;;;4.88;100.00;100657.47;5092771;27;19920;-76
2023/12/12 06:17:36;;;;;;;140.77;21.20;;;;;;;4.81;100.00;100657.78;5107497;27;20043;-76
2023/12/12 06:20:06;;;;;;;223.40;29.05;;;;;;;4.80;100.00;100664.00;5108364;27;20032;-77
2023/12/12 06:22:38;;;;;;;114.30;19.20;;;;;;;4.86;100.00;100664.56;5100338;27;20036;-76
2023/12/12 06:25:08;;;;;;;131.80;20.77;;;;;;;4.80;100.00;100666.63;5109145;27;20031;-76
2023/12/12 06:27:34;;;;;;;86.35;15.48;;;;;;;4.78;100.00;100658.78;5091024;27;20374;-76
2023/12/12 06:29:59;;;;;;;83.60;17.77;;;;;;;4.81;100.00;100657.78;5093119;27;20552;-76
2023/12/12 06:32:25;;;;;;;93.45;15.20;;;;;;;4.84;100.00;100652.38;5105295;27;20689;-75
2023/12/12 06:34:51;;;;;;;115.20;17.77;;;;;;;4.81;100.00;100656.00;5091897;27;20036;-76
2023/12/12 06:37:17;;;;;;;63.83;12.35;;;;;;;4.79;100.00;100652.56;5090201;27;20063;-76
2023/12/12 06:39:43;;;;;;;90.68;12.65;;;;;;;4.74;100.00;100648.41;5111082;27;20032;-76
2023/12/12 06:42:09;;;;;;;61.90;21.27;;;;;;;4.85;100.00;100654.94;5107116;27;21018;-76
2023/12/12 06:44:58;;;;;;;65.00;17.15;;;;;;;4.99;100.00;100656.16;5110803;27;20047;-76
2023/12/12 06:47:23;;;;;;;31.70;12.45;;;;;;;5.12;100.00;100652.03;5101562;27;20069;-76
2023/12/12 06:49:49;;;;;;;28.20;12.70;;;;;;;5.20;100.00;100640.19;5101200;27;20822;-76
2023/12/12 06:52:14;;;;;;;27.35;12.07;;;;;;;5.30;100.00;100635.34;5110872;27;20059;-76
2023/12/12 06:54:40;;;;;;;28.67;13.48;;;;;;;5.38;100.00;100637.66;5105117;27;20784;-76
2023/12/12 06:57:06;;;;;;;34.95;14.65;;;;;;;5.44;100.00;100627.66;5094454;27;20036;-75
2023/12/12 06:59:40;;;;;;;20.90;10.38;;;;;;;5.48;100.00;100620.47;5106137;27;20788;-77
2023/12/12 07:02:08;;;;;;;24.48;11.55;;;;;;;5.47;100.00;100616.06;5107047;27;20321;-76
2023/12/12 07:04:33;;;;;;;62.25;17.58;;;;;;;5.54;100.00;100606.94;5090856;27;20048;-76
2023/12/12 07:06:59;;;;;;;29.13;14.15;;;;;;;5.62;100.00;100607.47;5105360;27;20035;-76
2023/12/12 07:09:24;;;;;;;48.58;16.70;;;;;;;5.71;100.00;100603.50;5089784;27;20054;-76
2023/12/12 07:11:50;;;;;;;37.28;14.07;;;;;;;5.75;100.00;100593.66;5103593;27;25121;-76
2023/12/12 07:14:25;;;;;;;53.65;18.92;;;;;;;5.52;100.00;100592.91;5105524;27;20024;-76
2023/12/12 07:16:50;;;;;;;52.58;19.63;;;;;;;5.56;100.00;100589.22;5114483;27;20047;-76
2023/12/12 07:19:16;;;;;;;64.30;21.70;;;;;;;5.64;100.00;100594.16;5105676;27;20039;-76
2023/12/12 07:21:41;;;;;;;85.22;30.63;;;;;;;5.80;100.00;100583.69;5097172;27;20040;-76
2023/12/12 07:24:10;;;;;;;91.43;31.90;;;;;;;5.69;100.00;100592.16;5108179;27;20044;-76
2023/12/12 07:26:39;;;;;;;84.90;29.92;;;;;;;5.88;100.00;100603.56;5106772;27;20062;-76
2023/12/12 07:29:05;;;;;;;100.57;28.90;;;;;;;6.00;100.00;100610.09;5107834;27;20126;-77
2023/12/12 07:31:31;;;;;;;101.70;32.25;;;;;;;6.00;100.00;100601.28;5097514;27;20886;-76
2023/12/12 07:33:58;;;;;;;90.50;30.55;;;;;;;6.13;100.00;100605.06;5105381;27;21036;-76
2023/12/12 07:36:23;;;;;;;82.97;29.13;;;;;;;6.15;100.00;100613.78;5104253;27;20333;-76
2023/12/12 07:38:51;;;;;;;72.70;26.85;;;;;;;6.25;100.00;100608.91;5108970;27;20063;-76
2023/12/12 07:41:17;;;;;;;60.70;24.48;;;;;;;6.35;100.00;100611.00;5094762;27;20254;-76
2023/12/12 07:43:44;;;;;;;85.80;28.50;;;;;;;6.39;100.00;100603.78;5099007;27;20056;-76
2023/12/12 07:46:15;;;;;;;72.57;28.33;;;;;;;6.34;100.00;100596.06;5084988;27;20358;-76
2023/12/12 07:48:40;;;;;;;79.18;29.08;;;;;;;6.43;100.00;100600.06;5096935;27;20904;-76
2023/12/12 07:51:06;;;;;;;80.85;25.83;;;;;;;6.57;100.00;100604.63;5107412;27;20055;-76
2023/12/12 07:53:32;;;;;;;109.88;29.13;;;;;;;6.59;100.00;100600.13;5086143;27;20297;-76
2023/12/12 07:56:00;;;;;;;100.20;27.63;;;;;;;6.50;100.00;100604.09;5109824;27;20035;-76
2023/12/12 07:58:26;;;;;;;79.20;24.88;;;;;;;6.66;100.00;100599.72;5108269;27;20143;-76
2023/12/12 08:00:55;;;;;;;93.15;26.35;;;;;;;6.78;100.00;100597.38;5115727;27;20915;-76
2023/12/12 08:03:21;;;;;;;73.93;22.23;;;;;;;6.88;100.00;100596.00;5114125;27;20763;-77
2023/12/12 08:05:50;;;;;;;96.72;24.35;;;;;;;6.96;100.00;100588.47;5111773;27;20031;-77
2023/12/12 08:08:15;;;;;;;86.88;20.95;;;;;;;7.00;100.00;100582.94;5110026;27;20069;-76
2023/12/12 08:10:41;;;;;;;76.72;20.88;;;;;;;7.06;100.00;100576.44;5114176;27;20996;-76
2023/12/12 08:13:08;;;;;;;78.13;23.15;;;;;;;7.16;100.00;100582.97;5106196;27;20674;-76
2023/12/12 08:15:34;;;;;;;68.22;20.10;;;;;;;7.27;100.00;100585.06;5104380;27;20031;-76
2023/12/12 08:18:00;;;;;;;65.82;19.17;;;;;;;7.34;100.00;100577.63;5096030;27;20541;-76
2023/12/12 08:20:26;;;;;;;74.30;21.02;;;;;;;7.44;100.00;100568.25;5095274;27;20039;-76
2023/12/12 08:22:57;;;;;;;81.20;21.83;;;;;;;7.49;100.00;100563.53;5107353;27;20044;-76
2023/12/12 08:25:23;;;;;;;78.95;20.23;;;;;;;7.55;100.00;100559.69;5108343;27;20632;-76
2023/12/12 08:27:48;;;;;;;82.50;22.65;;;;;;;7.57;100.00;100556.00;5111506;27;20550;-76
2023/12/12 08:30:14;;;;;;;82.18;20.80;;;;;;;7.53;100.00;100552.69;5092893;27;20036;-77
2023/12/12 08:32:39;;;;;;;72.53;19.08;;;;;;;7.58;100.00;100554.19;5091550;27;20444;-76
2023/12/12 08:35:09;;;;;;;65.28;17.35;;;;;;;7.57;100.00;100549.84;5115534;27;20032;-75
2023/12/12 08:37:41;;;;;;;75.80;21.67;;;;;;;7.62;100.00;100553.09;5114469;27;20986;-76
2023/12/12 08:40:09;;;;;;;72.70;19.63;;;;;;;7.61;100.00;100556.69;5098324;27;20148;-77
2023/12/12 08:42:39;;;;;;;75.95;20.17;;;;;;;7.70;100.00;100556.19;5094246;27;20115;-76
2023/12/12 08:45:14;;;;;;;61.30;16.33;;;;;;;7.75;100.00;100546.16;5098198;27;20036;-76
2023/12/12 08:47:49;;;;;;;62.35;16.83;;;;;;;7.83;100.00;100546.59;5109905;27;20039;-76
2023/12/12 08:50:14;;;;;;;71.80;19.23;;;;;;;7.93;100.00;100545.13;5102129;27;20058;-76
2023/12/12 08:52:40;;;;;;;72.57;16.60;;;;;;;7.92;100.00;100538.06;5103409;27;20157;-77
2023/12/12 08:55:09;;;;;;;72.00;16.83;;;;;;;7.83;100.00;100532.44;5095301;27;20087;-77
2023/12/12 08:57:34;;;;;;;72.05;18.65;;;;;;;7.81;100.00;100535.19;5098217;27;20031;-76
2023/12/12 09:00:07;;;;;;;58.03;16.50;;;;;;;7.64;100.00;100544.13;5076980;27;20044;-76
2023/12/12 09:02:33;;;;;;;62.05;16.13;;;;;;;7.58;100.00;100541.81;5108251;27;20028;-77
2023/12/12 09:04:58;;;;;;;64.63;15.77;;;;;;;7.82;100.00;100544.84;5100532;27;20036;-77
2023/12/12 09:07:24;;;;;;;56.55;16.33;;;;;;;7.71;100.00;100542.81;5101694;27;20031;-76
2023/12/12 09:09:50;;;;;;;68.32;16.73;;;;;;;7.73;100.00;100532.97;5111666;27;20858;-77
2023/12/12 09:12:15;;;;;;;69.50;16.20;;;;;;;7.76;100.00;100537.25;5094864;27;20051;-76
2023/12/12 09:14:41;;;;;;;58.97;15.45;;;;;;;8.05;100.00;100544.41;5089405;27;20043;-76
2023/12/12 09:17:06;;;;;;;53.55;16.85;;;;;;;8.00;100.00;100530.53;5107417;27;20043;-77
2023/12/12 09:19:36;;;;;;;49.55;14.60;;;;;;;7.98;100.00;100523.59;5107972;27;20043;-76
2023/12/12 09:22:09;;;;;;;53.30;14.95;;;;;;;8.14;100.00;100512.97;5091247;27;20933;-77
2023/12/12 09:24:37;;;;;;;68.95;14.65;;;;;;;8.17;100.00;100516.28;5073950;27;20039;-77
2023/12/12 09:27:09;;;;;;;73.38;15.30;;;;;;;8.15;100.00;100504.03;5109902;27;20039;-77
2023/12/12 09:29:35;;;;;;;68.50;15.83;;;;;;;8.40;100.00;100504.31;5091201;27;20848;-76
2023/12/12 09:32:07;;;;;;;64.13;14.98;;;;;;;8.42;100.00;100501.56;5109106;27;20123;-76
2023/12/12 09:34:33;;;;;;;50.72;15.45;;;;;;;8.50;100.00;100502.81;5070284;27;20135;-76
2023/12/12 09:36:58;;;;;;;56.47;15.40;;;;;;;8.37;100.00;100493.03;5099231;27;20101;-77
2023/12/12 09:39:24;;;;;;;64.60;14.07;;;;;;;8.27;100.00;100487.38;5103238;27;20481;-77
2023/12/12 09:41:50;;;;;;;63.72;14.60;;;;;;;8.12;100.00;100483.81;5111153;27;20038;-77
2023/12/12 09:44:17;;;;;;;68.45;14.88;;;;;;;7.94;100.00;100484.91;5087078;27;20546;-77
2023/12/12 09:46:43;;;;;;;50.70;13.82;;;;;;;7.91;100.00;100472.66;5101935;27;20028;-77
2023/12/12 09:49:11;;;;;;;58.08;13.80;;;;;;;8.03;100.00;100476.38;5087557;27;20041;-77
2023/12/12 09:51:43;;;;;;;54.80;13.35;;;;;;;8.13;100.00;100466.06;5106603;27;20136;-77
2023/12/12 09:54:11;;;;;;;57.13;14.70;;;;;;;8.04;100.00;100471.00;5086340;27;20039;-77
2023/12/12 09:56:37;;;;;;;51.75;13.95;;;;;;;8.13;100.00;100463.41;5088773;27;20042;-77
2023/12/12 09:59:12;;;;;;;61.33;13.93;;;;;;;8.32;100.00;100454.25;5087038;27;20036;-77
2023/12/12 10:01:41;;;;;;;64.28;14.75;;;;;;;8.57;100.00;100444.84;5061190;27;20082;-77
2023/12/12 10:04:08;;;;;;;59.42;14.10;;;;;;;8.54;100.00;100434.41;5109334;27;20108;-77
2023/12/12 10:06:53;;;;;;;59.20;14.02;;;;;;;8.69;100.00;100430.81;5106922;27;20060;-77
2023/12/12 10:09:21;;;;;;;57.40;14.65;;;;;;;8.88;100.00;100416.34;5087367;27;20599;-76
2023/12/12 10:11:49;;;;;;;52.25;12.80;;;;;;;8.88;100.00;100411.03;5098694;27;20144;-77
2023/12/12 10:14:15;;;;;;;54.58;13.30;;;;;;;8.49;100.00;100412.59;5104188;27;20036;-77
2023/12/12 10:16:41;;;;;;;37.25;11.60;;;;;;;8.76;100.00;100413.50;5083457;27;20063;-76
2023/12/12 10:19:11;;;;;;;51.63;12.60;;;;;;;8.89;100.00;100408.28;5110827;27;20040;-77
2023/12/12 10:21:36;;;;;;;40.90;11.35;;;;;;;8.97;100.00;100389.16;5080419;27;20024;-77
2023/12/12 10:24:06;;;;;;;50.53;11.77;;;;;;;8.96;100.00;100388.31;5101302;27;20036;-77
2023/12/12 10:26:33;;;;;;;44.40;12.30;;;;;;;9.00;100.00;100376.53;5102149;27;20122;-76
2023/12/12 10:29:00;;;;;;;59.85;12.82;;;;;;;8.84;100.00;100370.50;5100834;27;20456;-76
2023/12/12 10:31:28;;;;;;;59.25;12.15;;;;;;;9.04;100.00;100371.88;5099488;27;20039;-78
2023/12/12 10:33:58;;;;;;;46.88;12.00;;;;;;;9.25;100.00;100366.97;5094645;27;20039;-77
2023/12/12 10:36:27;;;;;;;55.55;12.73;;;;;;;9.43;100.00;100364.91;5093293;27;20153;-77
2023/12/12 10:39:12;;;;;;;47.42;11.73;;;;;;;9.59;100.00;100354.97;5094486;27;20845;-76
2023/12/12 10:41:37;;;;;;;51.47;12.63;;;;;;;9.59;100.00;100354.97;5100155;27;20016;-76
2023/12/12 10:44:08;;;;;;;47.88;11.57;;;;;;;9.46;100.00;100343.41;5103312;27;20044;-76
2023/12/12 10:46:39;;;;;;;58.35;12.15;;;;;;;9.42;100.00;100340.09;5095946;27;20220;-77
2023/12/12 10:49:10;;;;;;;50.33;11.20;;;;;;;9.25;100.00;100329.72;5109858;27;20043;-78
2023/12/12 10:51:37;;;;;;;47.10;11.30;;;;;;;9.28;100.00;100333.00;5089684;27;20104;-76
2023/12/12 10:54:07;;;;;;;41.22;11.48;;;;;;;9.32;100.00;100323.03;5108814;27;20059;-77
2023/12/12 10:56:39;;;;;;;54.45;14.40;;;;;;;9.36;100.00;100326.34;5097556;27;20140;-77
2023/12/12 10:59:06;;;;;;;;;;;;;;;9.31;100.00;100316.88;5088436;27;20140;-77
2023/12/12 11:01:33;;;;;;;34.15;9.80;;;;;;;9.38;100.00;100309.31;5095172;27;19922;-77
2023/12/12 11:04:05;;;;;;;38.38;10.05;;;;;;;9.43;100.00;100304.53;5106291;27;20046;-76
2023/12/12 11:06:33;;;;;;;38.97;9.88;;;;;;;9.46;100.00;100314.13;5088907;27;20047;-77
2023/12/12 11:08:58;;;;;;;42.13;10.32;;;;;;;9.39;100.00;100296.84;5111065;27;20051;-77
2023/12/12 11:11:25;;;;;;;37.17;8.95;;;;;;;9.81;100.00;100290.44;5086544;27;20174;-77